createdAt,value
2019-01-25T00:01:36.950Z,42.13
2019-01-25T00:04:06.505Z,44.70
2019-01-25T00:06:35.976Z,44.07
2019-01-25T00:09:09.152Z,43.13
2019-01-25T00:11:38.724Z,44.10
2019-01-25T00:14:08.331Z,42.30
2019-01-25T00:16:37.923Z,43.17
2019-01-25T00:19:07.403Z,44.40
2019-01-25T00:21:36.892Z,43.07
2019-01-25T00:24:06.777Z,41.03
2019-01-25T00:26:36.289Z,41.73
2019-01-25T00:29:06.316Z,42.57
2019-01-25T00:31:35.801Z,41.13
2019-01-25T00:34:05.524Z,40.77
2019-01-25T00:36:35.010Z,42.30
2019-01-25T00:39:06.517Z,42.57
2019-01-25T00:41:36.013Z,44.77
2019-01-25T00:44:05.796Z,41.20
2019-01-25T00:46:35.333Z,42.50
2019-01-25T00:49:04.842Z,42.13
2019-01-25T00:51:34.329Z,41.87
2019-01-25T00:54:04.006Z,42.50
2019-01-25T00:56:33.505Z,43.17
2019-01-25T00:59:03.352Z,43.30
2019-01-25T01:01:32.847Z,39.97
2019-01-25T01:04:02.425Z,41.17
2019-01-25T01:06:50.979Z,39.30
2019-01-25T01:09:39.681Z,40.37
2019-01-25T01:12:09.402Z,38.70
2019-01-25T01:14:39.106Z,38.77
2019-01-25T01:17:08.774Z,36.47
2019-01-25T01:19:57.320Z,39.20
2019-01-25T01:22:46.136Z,39.20
2019-01-25T01:25:27.612Z,37.90
2019-01-25T01:31:27.863Z,38.73
2019-01-25T01:34:08.596Z,39.37
2019-01-25T01:36:50.094Z,38.03
2019-01-25T01:39:30.953Z,37.03
2019-01-25T01:42:00.453Z,37.47
2019-01-25T01:44:29.932Z,39.87
2019-01-25T01:47:18.675Z,36.43
2019-01-25T01:49:48.471Z,37.10
2019-01-25T01:52:37.072Z,36.80
2019-01-25T01:55:07.212Z,37.33
2019-01-25T01:57:36.684Z,37.53
2019-01-25T02:00:25.974Z,37.60
2019-01-25T02:02:55.860Z,36.47
2019-01-25T02:05:44.412Z,38.23
2019-01-25T02:08:13.887Z,38.13
2019-01-25T02:11:02.440Z,34.37
2019-01-25T02:13:50.963Z,34.73
2019-01-25T02:16:39.563Z,38.07
2019-01-25T02:19:28.080Z,36.83
2019-01-25T02:21:57.609Z,35.07
2019-01-25T02:24:46.128Z,34.37
2019-01-25T02:27:15.679Z,34.93
2019-01-25T02:29:45.148Z,35.33
2019-01-25T02:32:14.625Z,32.20
2019-01-25T02:34:44.138Z,35.17
2019-01-25T02:37:13.624Z,34.47
2019-01-25T02:39:43.713Z,34.07
2019-01-25T02:42:13.197Z,35.70
2019-01-25T02:44:42.738Z,32.83
2019-01-25T02:47:12.324Z,32.83
2019-01-25T02:49:41.802Z,36.93
2019-01-25T02:52:11.331Z,40.73
2019-01-25T02:54:40.804Z,36.67
2019-01-25T02:57:10.289Z,33.00
2019-01-25T02:59:39.768Z,33.23
2019-01-25T03:02:09.593Z,35.70
2019-01-25T03:04:39.079Z,34.07
2019-01-25T03:07:08.556Z,32.67
2019-01-25T03:09:38.072Z,33.70
2019-01-25T03:12:07.545Z,33.70
2019-01-25T03:14:37.045Z,32.20
2019-01-25T03:17:06.529Z,34.57
2019-01-25T03:19:36.066Z,35.20
2019-01-25T03:22:05.528Z,36.53
2019-01-25T03:24:35.002Z,37.07
2019-01-25T03:27:04.658Z,34.57
2019-01-25T03:29:34.117Z,35.17
2019-01-25T03:32:03.629Z,38.23
2019-01-25T03:34:33.197Z,35.90
2019-01-25T03:37:02.788Z,36.87
2019-01-25T03:39:32.272Z,37.83
2019-01-25T03:42:01.806Z,38.90
2019-01-25T03:44:31.309Z,37.70
2019-01-25T03:47:00.776Z,41.23
2019-01-25T03:52:05.489Z,38.27
2019-01-25T03:54:35.001Z,38.67
2019-01-25T03:57:04.537Z,36.07
2019-01-25T03:59:33.993Z,35.00
2019-01-25T04:02:03.504Z,35.70
2019-01-25T04:04:32.982Z,38.47
2019-01-25T04:07:02.493Z,37.60
2019-01-25T04:09:31.977Z,38.20
2019-01-25T04:12:01.500Z,37.80
2019-01-25T04:14:30.994Z,42.80
2019-01-25T04:17:00.491Z,41.23
2019-01-25T04:19:30.000Z,39.10
2019-01-25T04:21:59.473Z,39.33
2019-01-25T04:24:28.977Z,37.60
2019-01-25T04:26:58.456Z,39.87
2019-01-25T04:29:28.029Z,39.70
2019-01-25T04:31:57.503Z,40.60
2019-01-25T04:34:27.008Z,41.33
2019-01-25T04:36:56.517Z,40.20
2019-01-25T04:39:25.982Z,42.47
2019-01-25T04:41:55.494Z,40.03
2019-01-25T04:44:24.972Z,39.93
2019-01-25T04:46:54.495Z,40.00
2019-01-25T04:49:23.968Z,39.50
2019-01-25T04:51:53.495Z,39.27
2019-01-25T04:54:22.967Z,39.60
2019-01-25T04:56:52.441Z,40.63
2019-01-25T04:59:25.018Z,39.63
2019-01-25T05:01:54.497Z,42.10
2019-01-25T05:04:24.069Z,41.53
2019-01-25T05:06:53.712Z,39.47
2019-01-25T05:09:23.201Z,41.13
2019-01-25T05:11:52.749Z,40.10
2019-01-25T05:14:22.381Z,41.53
2019-01-25T05:16:51.898Z,41.47
2019-01-25T05:19:21.372Z,43.40
2019-01-25T05:21:50.905Z,43.90
2019-01-25T05:24:20.416Z,42.00
2019-01-25T05:26:51.378Z,41.17
2019-01-25T05:29:24.663Z,42.33
2019-01-25T05:31:54.156Z,42.23
2019-01-25T05:34:23.670Z,42.10
2019-01-25T05:36:53.156Z,42.43
2019-01-25T05:39:22.682Z,42.77
2019-01-25T05:41:53.873Z,44.60
2019-01-25T05:44:23.389Z,43.70
2019-01-25T05:46:52.855Z,41.60
2019-01-25T05:49:25.344Z,41.30
2019-01-25T05:51:54.785Z,40.97
2019-01-25T05:56:58.872Z,44.70
2019-01-25T05:59:28.380Z,39.50
2019-01-25T06:01:57.870Z,42.80
2019-01-25T06:04:34.019Z,42.37
2019-01-25T06:07:03.454Z,42.40
2019-01-25T06:09:32.964Z,41.00
2019-01-25T06:12:02.617Z,42.33
2019-01-25T06:14:32.109Z,44.00
2019-01-25T06:17:01.633Z,41.97
2019-01-25T06:19:37.204Z,40.43
2019-01-25T06:22:06.810Z,42.63
2019-01-25T06:24:36.306Z,43.77
2019-01-25T06:27:05.926Z,42.77
2019-01-25T06:29:35.470Z,42.57
2019-01-25T06:32:05.876Z,42.57
2019-01-25T06:34:35.366Z,44.57
2019-01-25T06:37:04.845Z,42.80
2019-01-25T06:39:34.420Z,41.67
2019-01-25T06:42:03.879Z,42.97
2019-01-25T06:44:33.690Z,42.70
2019-01-25T06:47:03.181Z,43.33
2019-01-25T06:49:32.706Z,44.67
2019-01-25T06:52:02.245Z,40.93
2019-01-25T06:54:31.941Z,43.50
2019-01-25T06:57:03.021Z,39.53
2019-01-25T06:59:37.387Z,44.70
2019-01-25T07:02:13.126Z,40.43
2019-01-25T07:04:42.634Z,42.37
2019-01-25T07:07:21.056Z,40.73
2019-01-25T07:09:50.580Z,46.57
2019-01-25T07:12:20.153Z,42.27
2019-01-25T07:14:49.645Z,40.73
2019-01-25T07:17:20.754Z,42.90
2019-01-25T07:19:50.236Z,41.87
2019-01-25T07:22:19.752Z,51.67
2019-01-25T07:24:49.244Z,42.47
2019-01-25T07:27:18.748Z,44.43
2019-01-25T07:29:48.461Z,59.23
2019-01-25T07:32:18.378Z,52.17
2019-01-25T07:34:47.884Z,44.40
2019-01-25T07:37:17.361Z,42.33
2019-01-25T07:39:47.673Z,46.03
2019-01-25T07:42:17.165Z,43.10
2019-01-25T07:47:21.355Z,43.33
2019-01-25T07:49:50.885Z,39.30
2019-01-25T07:52:20.373Z,43.53
2019-01-25T07:54:49.909Z,40.63
2019-01-25T07:57:19.389Z,45.77
2019-01-25T07:59:48.922Z,44.30
2019-01-25T08:02:18.458Z,41.03
2019-01-25T08:04:47.976Z,42.40
2019-01-25T08:07:17.453Z,43.30
2019-01-25T08:09:46.978Z,42.33
2019-01-25T08:12:16.474Z,42.03
2019-01-25T08:14:45.977Z,41.87
2019-01-25T08:17:15.501Z,40.70
2019-01-25T08:19:45.017Z,44.17
2019-01-25T08:22:14.563Z,43.83
2019-01-25T08:24:44.041Z,39.90
2019-01-25T08:27:13.517Z,39.60
2019-01-25T08:29:43.033Z,41.97
2019-01-25T08:32:12.527Z,41.43
2019-01-25T08:34:42.003Z,39.50
2019-01-25T08:37:11.582Z,39.30
2019-01-25T08:39:41.035Z,39.47
2019-01-25T08:42:15.498Z,67.57
2019-01-25T08:44:41.654Z,44.93
2019-01-25T08:47:11.160Z,40.30
2019-01-25T08:49:40.631Z,37.37
2019-01-25T08:52:10.831Z,38.57
2019-01-25T08:54:40.397Z,37.30
2019-01-25T08:57:09.865Z,37.00
2019-01-25T08:59:39.409Z,36.87
2019-01-25T09:02:08.897Z,38.80
2019-01-25T09:04:38.397Z,36.77
2019-01-25T09:07:07.886Z,40.73
2019-01-25T09:09:37.352Z,39.93
2019-01-25T09:12:06.863Z,41.27
2019-01-25T09:14:36.349Z,37.23
2019-01-25T09:17:05.881Z,39.00
2019-01-25T09:19:35.350Z,37.07
2019-01-25T09:22:04.937Z,51.97
2019-01-25T09:24:34.420Z,35.23
2019-01-25T09:27:03.920Z,36.30
2019-01-25T09:29:33.440Z,34.10
2019-01-25T09:32:02.948Z,33.20
2019-01-25T09:34:32.448Z,34.57
2019-01-25T09:37:01.929Z,35.40
2019-01-25T09:39:31.429Z,33.70
2019-01-25T09:42:00.892Z,32.13
2019-01-25T09:44:30.417Z,31.63
2019-01-25T09:46:59.889Z,31.83
2019-01-25T09:49:29.372Z,32.43
2019-01-25T09:51:58.908Z,32.70
2019-01-25T09:54:28.417Z,31.03
2019-01-25T09:56:58.035Z,32.90
2019-01-25T09:59:27.496Z,32.37
2019-01-25T10:01:57.028Z,31.27
2019-01-25T10:04:26.527Z,30.23
2019-01-25T10:09:31.593Z,30.23
2019-01-25T10:12:01.064Z,29.57
2019-01-25T10:14:30.572Z,31.37
2019-01-25T10:17:00.084Z,29.83
2019-01-25T10:19:29.598Z,29.50
2019-01-25T10:21:59.084Z,29.43
2019-01-25T10:24:28.588Z,32.57
2019-01-25T10:26:58.148Z,29.87
2019-01-25T10:29:27.614Z,28.77
2019-01-25T10:31:57.140Z,30.37
2019-01-25T10:34:26.633Z,28.67
2019-01-25T10:36:56.138Z,27.40
2019-01-25T10:39:25.970Z,29.57
2019-01-25T10:41:55.469Z,29.73
2019-01-25T10:44:24.947Z,27.53
2019-01-25T10:46:54.456Z,28.27
2019-01-25T10:49:23.926Z,30.33
2019-01-25T10:51:53.437Z,28.33
2019-01-25T10:54:22.933Z,70.47
2019-01-25T10:56:52.552Z,33.43
2019-01-25T10:59:22.024Z,28.63
2019-01-25T11:01:51.536Z,36.40
2019-01-25T11:04:21.048Z,28.87
2019-01-25T11:06:50.535Z,27.23
2019-01-25T11:09:20.053Z,26.10
2019-01-25T11:11:49.544Z,26.50
2019-01-25T11:14:19.036Z,26.20
2019-01-25T11:16:48.591Z,29.77
2019-01-25T11:19:18.077Z,24.73
2019-01-25T11:21:47.544Z,24.93
2019-01-25T11:24:17.114Z,23.60
2019-01-25T11:26:46.649Z,23.57
2019-01-25T11:29:16.117Z,25.07
2019-01-25T11:31:46.141Z,22.60
2019-01-25T11:34:15.645Z,20.43
2019-01-25T11:36:45.140Z,21.47
2019-01-25T11:39:14.764Z,21.53
2019-01-25T11:41:44.270Z,21.90
2019-01-25T11:44:13.800Z,22.87
2019-01-25T11:46:43.252Z,20.93
2019-01-25T11:49:12.889Z,21.17
2019-01-25T11:51:42.364Z,20.63
2019-01-25T11:54:11.882Z,20.27
2019-01-25T11:56:41.348Z,22.20
2019-01-25T11:59:10.830Z,21.80
2019-01-25T12:01:40.343Z,21.00
2019-01-25T12:04:09.929Z,21.93
2019-01-25T12:06:39.433Z,20.00
2019-01-25T12:09:09.956Z,20.50
2019-01-25T12:11:39.452Z,20.53
2019-01-25T12:14:08.928Z,21.50
2019-01-25T12:16:38.398Z,20.50
2019-01-25T12:19:07.908Z,20.63
2019-01-25T12:21:37.372Z,18.93
2019-01-25T12:24:06.988Z,20.90
2019-01-25T12:26:36.465Z,18.50
2019-01-25T12:29:06.228Z,21.17
2019-01-25T12:31:35.700Z,19.13
2019-01-25T12:34:05.479Z,19.33
2019-01-25T12:36:34.945Z,20.60
2019-01-25T12:39:06.784Z,22.73
2019-01-25T12:41:36.262Z,21.50
2019-01-25T12:44:05.864Z,18.07
2019-01-25T12:46:35.365Z,18.80
2019-01-25T12:49:04.869Z,18.23
2019-01-25T12:51:50.680Z,19.77
2019-01-25T12:54:20.253Z,20.27
2019-01-25T12:56:49.776Z,19.23
2019-01-25T12:59:19.284Z,20.10
2019-01-25T13:01:50.341Z,18.87
2019-01-25T13:04:19.863Z,18.73
2019-01-25T13:06:49.357Z,18.63
2019-01-25T13:09:18.872Z,19.07
2019-01-25T13:11:48.353Z,19.70
2019-01-25T13:14:17.867Z,18.93
2019-01-25T13:16:47.357Z,19.43
2019-01-25T13:19:16.946Z,21.43
2019-01-25T13:21:46.410Z,23.00
2019-01-25T13:24:15.894Z,21.17
2019-01-25T13:26:45.538Z,22.17
2019-01-25T13:29:15.007Z,29.47
2019-01-25T13:31:44.595Z,28.90
2019-01-25T13:34:20.882Z,22.40
2019-01-25T13:39:37.732Z,26.77
2019-01-25T13:50:11.721Z,28.87
2019-01-25T13:52:41.276Z,20.70
2019-01-25T13:55:12.500Z,29.17
2019-01-25T13:57:42.009Z,19.10
2019-01-25T14:00:42.413Z,19.53
2019-01-25T14:03:13.896Z,20.83
2019-01-25T14:05:45.913Z,23.67
2019-01-25T14:08:18.261Z,24.20
2019-01-25T14:10:47.854Z,20.40
2019-01-25T14:13:17.331Z,34.00
2019-01-25T14:15:46.814Z,20.87
2019-01-25T14:18:16.373Z,20.03
2019-01-25T14:20:45.889Z,18.80
2019-01-25T14:23:15.368Z,20.23
2019-01-25T14:26:04.018Z,18.37
2019-01-25T14:28:33.493Z,19.63
2019-01-25T14:31:03.177Z,19.47
2019-01-25T14:33:32.653Z,21.80
2019-01-25T14:36:02.165Z,22.47
2019-01-25T14:38:31.706Z,23.43
2019-01-25T14:41:01.465Z,19.40
2019-01-25T14:43:31.016Z,19.53
2019-01-25T14:46:00.558Z,19.67
2019-01-25T14:48:30.097Z,29.77
2019-01-25T14:50:59.620Z,20.97
2019-01-25T14:53:29.109Z,20.03
2019-01-25T14:55:58.947Z,24.63
2019-01-25T14:58:28.517Z,19.13
2019-01-25T15:00:58.076Z,17.83
2019-01-25T15:03:27.543Z,21.47
2019-01-25T15:05:57.105Z,18.93
2019-01-25T15:08:26.581Z,19.40
2019-01-25T15:10:56.127Z,19.20
2019-01-25T15:13:25.641Z,17.97
2019-01-25T15:15:55.175Z,19.73
2019-01-25T15:18:24.673Z,19.33
2019-01-25T15:20:54.242Z,20.50
2019-01-25T15:23:23.778Z,20.50
2019-01-25T15:25:53.335Z,19.90
2019-01-25T15:28:22.866Z,20.70
2019-01-25T15:30:52.477Z,21.40
2019-01-25T15:33:22.004Z,19.30
2019-01-25T15:35:51.522Z,21.17
2019-01-25T15:38:21.069Z,21.47
2019-01-25T15:40:50.589Z,20.77
2019-01-25T15:43:20.125Z,23.47
2019-01-25T15:45:52.673Z,21.70
2019-01-25T15:48:22.298Z,21.77
2019-01-25T15:50:51.816Z,22.67
2019-01-25T15:53:21.303Z,23.67
2019-01-25T15:55:50.835Z,23.83
2019-01-25T15:58:20.341Z,21.80
2019-01-25T16:00:49.875Z,23.80
2019-01-25T16:03:19.432Z,23.17
2019-01-25T16:05:48.954Z,22.13
2019-01-25T16:08:18.469Z,23.50
2019-01-25T16:10:48.006Z,26.00
2019-01-25T16:13:17.512Z,24.03
2019-01-25T16:15:47.125Z,24.60
2019-01-25T16:18:16.765Z,22.23
2019-01-25T16:20:46.364Z,26.67
2019-01-25T16:23:15.880Z,24.40
2019-01-25T16:25:45.489Z,25.40
2019-01-25T16:28:20.609Z,25.83
2019-01-25T16:30:50.158Z,24.47
2019-01-25T16:33:19.681Z,26.87
2019-01-25T16:35:49.226Z,25.80
2019-01-25T16:38:18.766Z,26.77
2019-01-25T16:40:48.265Z,26.83
2019-01-25T16:43:17.783Z,24.13
2019-01-25T16:45:47.281Z,26.60
2019-01-25T16:48:16.761Z,26.50
2019-01-25T16:50:46.301Z,25.23
2019-01-25T16:53:15.905Z,29.50
2019-01-25T16:55:45.541Z,26.97
2019-01-25T16:58:15.053Z,27.63
2019-01-25T17:00:48.517Z,28.27
2019-01-25T17:03:18.564Z,26.67
2019-01-25T17:05:48.178Z,27.37
2019-01-25T17:08:17.754Z,26.67
2019-01-25T17:10:47.253Z,26.43
2019-01-25T17:13:16.768Z,26.97
2019-01-25T17:15:46.398Z,26.10
2019-01-25T17:18:15.910Z,26.53
2019-01-25T17:20:45.421Z,26.33
2019-01-25T17:23:14.968Z,27.60
2019-01-25T17:25:44.482Z,28.13
2019-01-25T17:28:14.269Z,27.37
2019-01-25T17:30:43.805Z,26.77
2019-01-25T17:33:13.286Z,28.20
2019-01-25T17:35:42.845Z,25.97
2019-01-25T17:38:12.348Z,26.77
2019-01-25T17:40:46.802Z,26.83
2019-01-25T17:43:15.529Z,27.37
2019-01-25T17:45:45.198Z,29.00
2019-01-25T17:48:14.672Z,28.20
2019-01-25T17:50:44.169Z,27.10
2019-01-25T17:53:13.680Z,27.50
2019-01-25T17:55:43.199Z,28.80
2019-01-25T17:58:12.684Z,31.40
2019-01-25T18:00:50.070Z,27.53
2019-01-25T18:03:19.547Z,28.17
2019-01-25T18:05:49.093Z,28.60
2019-01-25T18:08:18.606Z,28.30
2019-01-25T18:10:48.173Z,28.00
2019-01-25T18:13:17.689Z,31.70
2019-01-25T18:20:56.398Z,29.80
2019-01-25T18:23:25.886Z,30.17
2019-01-25T18:26:16.405Z,36.60
2019-01-25T18:29:00.805Z,27.77
2019-01-25T18:31:31.413Z,29.83
2019-01-25T18:34:00.914Z,27.60
2019-01-25T18:36:30.537Z,27.77
2019-01-25T18:39:00.048Z,31.20
2019-01-25T18:41:29.541Z,27.33
2019-01-25T18:43:59.058Z,29.73
2019-01-25T18:46:28.585Z,27.87
2019-01-25T18:48:58.091Z,26.83
2019-01-25T18:51:27.639Z,28.17
2019-01-25T21:17:46.254Z,22.37
2019-01-25T21:20:36.859Z,23.37
2019-01-25T21:23:06.845Z,24.10
2019-01-25T21:25:36.468Z,21.57
2019-01-25T21:28:06.761Z,22.13
2019-01-25T21:30:36.888Z,24.13
2019-01-25T21:33:06.806Z,23.33
2019-01-25T21:35:36.300Z,21.87
2019-01-25T21:38:06.272Z,23.03
2019-01-25T21:40:36.003Z,23.10
2019-01-25T21:43:06.278Z,22.13
2019-01-25T21:45:42.880Z,23.23
2019-01-25T21:50:47.488Z,21.77
2019-01-25T21:53:17.137Z,24.07
2019-01-25T21:55:46.650Z,24.60
2019-01-25T21:58:16.210Z,23.97
2019-01-25T22:17:06.493Z,20.83
2019-01-25T22:19:55.020Z,19.50
2019-01-25T22:25:19.132Z,19.63
2019-01-25T22:28:07.702Z,17.67
2019-01-25T22:30:37.188Z,18.23
2019-01-25T22:33:25.739Z,17.97
2019-01-25T22:35:55.240Z,18.07
2019-01-25T22:38:24.744Z,17.03
2019-01-25T22:40:54.267Z,18.53
2019-01-25T22:43:23.774Z,17.10
2019-01-25T22:45:58.492Z,16.73
2019-01-25T22:48:24.406Z,16.30
2019-01-25T22:50:56.465Z,15.87
2019-01-25T22:53:25.977Z,15.83
2019-01-25T22:55:55.534Z,15.27
2019-01-25T22:58:25.058Z,15.20
2019-01-25T23:01:32.961Z,14.27
2019-01-25T23:04:34.614Z,15.57
2019-01-25T23:07:15.825Z,15.43
2019-01-25T23:09:53.240Z,14.80
2019-01-25T23:12:22.752Z,12.83
2019-01-25T23:14:52.248Z,13.10
2019-01-25T23:17:21.782Z,13.03
2019-01-25T23:19:51.308Z,12.83
2019-01-25T23:22:20.802Z,12.73
2019-01-25T23:24:50.311Z,11.50
2019-01-25T23:27:19.790Z,13.13
2019-01-25T23:29:49.296Z,12.40
2019-01-25T23:32:18.802Z,11.90
2019-01-25T23:34:48.332Z,12.50
2019-01-25T23:37:17.822Z,12.20
2019-01-25T23:39:47.353Z,11.13
2019-01-25T23:42:17.210Z,12.13
2019-01-25T23:44:46.721Z,11.67
2019-01-25T23:47:16.212Z,11.37
2019-01-25T23:49:45.810Z,10.73
2019-01-25T23:52:15.324Z,10.80
2019-01-25T23:54:44.809Z,11.57
2019-01-25T23:57:14.342Z,12.10
2019-01-25T23:59:43.839Z,10.97
